Time;durP1;ratioP1;P1;durP2;ratioP2;P2;SDS_P1;SDS_P2;PMS_P1;PMS_P2;Temp;Humidity;BMP_temperature;BMP_pressure;BME280_temperature;BME280_humidity;BME280_pressure;Samples;Min_cycle;Max_cycle;Signal;HPM_P1;HPM_P2
2023/12/08 00:02:03;;;;;;;1.98;1.17;;;;;;;12.30;nan;98090.44;7392457;19;20018;-57
2023/12/08 00:04:29;;;;;;;2.78;0.57;;;;;;;12.28;nan;98093.03;7391485;19;20035;-57
2023/12/08 00:06:55;;;;;;;3.53;1.20;;;;;;;12.23;nan;98091.06;7393212;19;20039;-57
2023/12/08 00:09:21;;;;;;;6.13;1.42;;;;;;;12.17;nan;98083.50;7392176;19;20015;-58
2023/12/08 00:11:48;;;;;;;0.85;0.73;;;;;;;12.11;nan;98084.88;7391662;19;20520;-57
2023/12/08 00:14:14;;;;;;;0.52;0.52;;;;;;;12.06;nan;98088.50;7392815;19;20007;-57
2023/12/08 00:16:41;;;;;;;1.23;1.15;;;;;;;12.04;nan;98097.38;7391218;19;20011;-57
2023/12/08 00:19:10;;;;;;;0.30;0.30;;;;;;;12.00;nan;98085.78;7391934;19;20014;-57
2023/12/08 00:21:36;;;;;;;0.28;0.28;;;;;;;11.99;nan;98095.44;7394850;19;20388;-57
2023/12/08 00:24:02;;;;;;;0.82;0.68;;;;;;;11.95;nan;98072.66;7391236;19;20018;-57
2023/12/08 00:26:29;;;;;;;0.65;0.35;;;;;;;11.95;nan;98083.81;7390241;19;20021;-57
2023/12/08 00:28:55;;;;;;;1.65;1.55;;;;;;;12.00;nan;98080.19;7389434;19;20006;-57
2023/12/08 00:31:21;;;;;;;0.60;0.50;;;;;;;12.05;nan;98093.34;7391793;19;20006;-57
2023/12/08 00:33:47;;;;;;;1.08;0.85;;;;;;;12.09;nan;98088.19;7392617;19;20014;-57
2023/12/08 00:36:16;;;;;;;0.20;0.20;;;;;;;25.18;nan;98077.44;7391969;19;20018;-57
2023/12/08 00:38:44;;;;;;;0.22;0.22;;;;;;;32.01;nan;98063.06;7391672;19;20034;-57
2023/12/08 00:41:10;;;;;;;0.10;0.10;;;;;;;33.61;nan;98065.88;7391748;19;20010;-57
2023/12/08 00:43:37;;;;;;;5.80;0.55;;;;;;;34.37;nan;98075.06;7391112;19;20015;-57
2023/12/08 00:46:03;;;;;;;0.40;0.30;;;;;;;34.88;nan;98071.97;7392121;19;20011;-57
2023/12/08 00:48:29;;;;;;;1.27;0.77;;;;;;;35.17;nan;98074.09;7394997;19;20014;-57
2023/12/08 00:50:56;;;;;;;1.00;0.60;;;;;;;35.36;nan;98084.63;7394782;19;20062;-57
2023/12/08 00:53:22;;;;;;;0.25;0.25;;;;;;;35.51;nan;98065.38;7391527;19;20372;-57
2023/12/08 00:55:48;;;;;;;0.95;0.65;;;;;;;35.63;nan;98072.13;7391848;19;20014;-57
2023/12/08 00:58:17;;;;;;;0.40;0.40;;;;;;;34.79;nan;98076.84;7396471;19;20034;-57
2023/12/08 01:00:44;;;;;;;0.28;0.28;;;;;;;34.45;nan;98084.69;7391989;19;20010;-57
2023/12/08 01:03:11;;;;;;;1.17;0.55;;;;;;;34.42;nan;98082.41;7392221;19;20395;-57
2023/12/08 01:05:37;;;;;;;1.20;0.68;;;;;;;34.28;nan;98077.03;7391692;19;20010;-57
2023/12/08 01:08:04;;;;;;;0.75;0.68;;;;;;;33.44;nan;98081.25;7395413;19;20336;-57
2023/12/08 01:10:30;;;;;;;0.35;0.35;;;;;;;34.75;nan;98076.75;7397708;19;20010;-57
2023/12/08 01:12:56;;;;;;;0.32;0.28;;;;;;;34.28;nan;98080.66;7396391;19;20014;-57
2023/12/08 01:15:22;;;;;;;0.10;0.10;;;;;;;34.24;nan;98080.53;7396398;19;20455;-57
2023/12/08 01:17:49;;;;;;;0.57;0.35;;;;;;;34.57;nan;98087.13;7401499;19;20354;-57
2023/12/08 01:20:15;;;;;;;1.25;1.15;;;;;;;34.62;nan;98085.81;7398518;19;20014;-57
2023/12/08 01:22:41;;;;;;;0.10;0.10;;;;;;;33.92;nan;98094.13;7401841;19;20075;-57
2023/12/08 01:25:07;;;;;;;1.65;0.75;;;;;;;33.55;nan;98091.66;7398832;19;20019;-57
2023/12/08 01:27:34;;;;;;;0.20;0.20;;;;;;;33.35;nan;98099.75;7399267;19;20010;-57
2023/12/08 01:30:00;;;;;;;5.10;0.88;;;;;;;33.29;nan;98096.66;7398273;19;20021;-57
2023/12/08 01:32:26;;;;;;;4.65;0.43;;;;;;;33.46;nan;98102.22;7397827;19;20331;-57
2023/12/08 01:34:52;;;;;;;1.45;1.02;;;;;;;33.79;nan;98109.66;7397523;19;20089;-58
2023/12/08 01:37:18;;;;;;;0.63;0.45;;;;;;;33.19;nan;98111.56;7400226;19;20011;-57
2023/12/08 01:39:46;;;;;;;0.20;0.20;;;;;;;32.87;nan;98102.63;7397287;19;20021;-57
2023/12/08 01:42:12;;;;;;;1.17;0.47;;;;;;;32.75;nan;98119.53;7396596;19;20043;-57
2023/12/08 01:44:38;;;;;;;0.13;0.13;;;;;;;33.16;nan;98117.94;7396963;19;20474;-57
2023/12/08 01:47:06;;;;;;;0.20;0.20;;;;;;;33.39;nan;98122.94;7398395;19;20017;-57
2023/12/08 01:49:34;;;;;;;0.20;0.20;;;;;;;33.80;nan;98122.72;7397321;19;20007;-57
2023/12/08 01:52:00;;;;;;;0.20;0.20;;;;;;;33.73;nan;98129.72;7398123;19;20018;-57
2023/12/08 01:54:27;;;;;;;0.20;0.20;;;;;;;33.75;nan;98134.81;7397024;19;20405;-57
2023/12/08 01:56:53;;;;;;;0.32;0.32;;;;;;;33.64;nan;98128.03;7398487;19;20010;-58
2023/12/08 01:59:20;;;;;;;0.65;0.65;;;;;;;33.59;nan;98127.16;7396984;19;20339;-57
2023/12/08 02:01:47;;;;;;;0.10;0.10;;;;;;;33.47;nan;98126.06;7396222;19;20014;-57
2023/12/08 02:04:13;;;;;;;0.40;0.40;;;;;;;33.38;nan;98135.91;7396339;19;20011;-58
2023/12/08 02:06:40;;;;;;;0.68;0.55;;;;;;;33.31;nan;98132.09;7396484;19;20021;-57
2023/12/08 02:09:07;;;;;;;0.20;0.20;;;;;;;23.00;nan;98142.63;7395977;19;20082;-57
2023/12/08 02:11:35;;;;;;;0.30;0.30;;;;;;;21.39;nan;98141.25;7395879;19;20031;-57
2023/12/08 02:14:03;;;;;;;0.20;0.20;;;;;;;20.59;nan;98142.06;7395975;19;20015;-57
2023/12/08 02:16:53;;;;;;;0.13;0.13;;;;;;;19.86;nan;98140.28;7396381;19;20387;-57
2023/12/08 02:19:20;;;;;;;0.30;0.30;;;;;;;19.88;nan;98137.63;7394027;19;20459;-57
2023/12/08 02:21:47;;;;;;;0.30;0.30;;;;;;;19.60;nan;98142.38;7399313;19;20026;-57
2023/12/08 02:24:13;;;;;;;0.47;0.47;;;;;;;17.56;nan;98148.31;7396478;19;20011;-57
2023/12/08 02:26:39;;;;;;;0.30;0.30;;;;;;;19.37;nan;98144.69;7397073;19;20006;-57
2023/12/08 02:29:08;;;;;;;0.80;0.68;;;;;;;17.73;nan;98151.28;7393711;19;20010;-57
2023/12/08 02:31:42;;;;;;;0.40;0.40;;;;;;;17.19;nan;98149.81;7392822;19;20010;-57
2023/12/08 02:34:10;;;;;;;0.30;0.30;;;;;;;16.73;nan;98153.09;7395001;19;20066;-58
2023/12/08 02:36:41;;;;;;;1.45;0.95;;;;;;;16.79;nan;98145.25;7395578;19;20017;-57
2023/12/08 02:39:10;;;;;;;0.47;0.45;;;;;;;16.65;nan;98151.03;7393057;19;20031;-57
2023/12/08 02:41:36;;;;;;;0.25;0.25;;;;;;;17.21;nan;98152.06;7394007;19;20035;-57
2023/12/08 02:44:03;;;;;;;0.20;0.20;;;;;;;17.73;nan;98173.81;7395359;19;20062;-57
2023/12/08 02:46:30;;;;;;;0.30;0.30;;;;;;;18.37;nan;98175.31;7397794;19;20015;-57
2023/12/08 02:48:56;;;;;;;0.10;0.10;;;;;;;17.78;nan;98181.31;7393126;19;20042;-57
2023/12/08 02:51:22;;;;;;;0.43;0.43;;;;;;;17.64;nan;98177.22;7399479;19;20019;-57
2023/12/08 02:53:49;;;;;;;1.38;0.73;;;;;;;20.10;nan;98184.66;7394625;19;20557;-57
2023/12/08 02:56:21;;;;;;;0.10;0.10;;;;;;;19.04;nan;98181.94;7394526;19;20397;-58
2023/12/08 02:58:47;;;;;;;0.75;0.65;;;;;;;18.26;nan;98184.22;7394546;19;20077;-57
2023/12/08 03:01:15;;;;;;;0.30;0.30;;;;;;;19.91;nan;98176.75;7395020;19;20070;-58
2023/12/08 03:03:41;;;;;;;0.10;0.10;;;;;;;18.97;nan;98177.13;7393238;19;20021;-61
2023/12/08 03:06:07;;;;;;;0.35;0.35;;;;;;;24.68;nan;98166.13;7395455;19;20355;-57
2023/12/08 03:08:33;;;;;;;0.28;0.28;;;;;;;20.46;nan;98189.75;7399275;19;20030;-57
2023/12/08 03:11:00;;;;;;;0.20;0.20;;;;;;;16.85;nan;98185.19;7391970;19;20003;-56
2023/12/08 03:13:26;;;;;;;0.10;0.10;;;;;;;16.47;nan;98194.22;7391495;19;20015;-56
2023/12/08 03:15:52;;;;;;;0.40;0.40;;;;;;;16.13;nan;98199.31;7391647;19;20004;-56
2023/12/08 03:18:18;;;;;;;0.28;0.28;;;;;;;15.94;nan;98198.81;7398396;19;20017;-56
2023/12/08 03:20:44;;;;;;;0.20;0.20;;;;;;;16.02;nan;98202.44;7394972;19;20018;-57
2023/12/08 03:23:10;;;;;;;0.20;0.20;;;;;;;15.41;nan;98198.44;7393834;19;20411;-57
2023/12/08 03:25:36;;;;;;;0.10;0.10;;;;;;;16.11;nan;98196.31;7393857;19;20014;-57
2023/12/08 03:28:02;;;;;;;0.20;0.20;;;;;;;16.26;nan;98185.16;7397208;19;20015;-57
2023/12/08 03:30:29;;;;;;;0.20;0.20;;;;;;;16.24;nan;98193.38;7391938;19;20020;-56
2023/12/08 03:32:55;;;;;;;0.20;0.20;;;;;;;16.93;nan;98183.91;7394753;19;20082;-56
2023/12/08 03:35:21;;;;;;;0.10;0.10;;;;;;;17.17;nan;98182.63;7394552;19;20007;-56
2023/12/08 03:37:47;;;;;;;0.20;0.20;;;;;;;17.85;nan;98174.91;7396805;19;20068;-56
2023/12/08 03:40:13;;;;;;;0.43;0.43;;;;;;;17.37;nan;98182.44;7393570;19;20059;-56
2023/12/08 03:42:39;;;;;;;0.13;0.13;;;;;;;16.32;nan;98176.56;7391842;19;20010;-56
2023/12/08 03:45:06;;;;;;;0.20;0.20;;;;;;;15.94;nan;98187.59;7391837;19;20069;-56
2023/12/08 03:47:32;;;;;;;0.22;0.22;;;;;;;16.93;nan;98177.53;7395267;19;20014;-57
2023/12/08 03:49:58;;;;;;;0.43;0.43;;;;;;;16.01;nan;98178.47;7393458;19;20039;-56
2023/12/08 03:52:24;;;;;;;0.10;0.10;;;;;;;16.03;nan;98183.50;7391193;19;20471;-57
2023/12/08 03:54:50;;;;;;;0.20;0.20;;;;;;;16.38;nan;98177.13;7393320;19;20018;-56
2023/12/08 03:57:16;;;;;;;0.10;0.10;;;;;;;17.14;nan;98180.91;7395257;19;20387;-56
2023/12/08 03:59:43;;;;;;;0.20;0.20;;;;;;;18.09;nan;98171.47;7392634;19;20471;-56
2023/12/08 04:02:09;;;;;;;0.20;0.20;;;;;;;18.28;nan;98173.13;7394065;19;20023;-56
2023/12/08 04:04:35;;;;;;;0.10;0.10;;;;;;;18.34;nan;98176.47;7392142;19;20010;-56
2023/12/08 04:07:02;;;;;;;1.38;1.27;;;;;;;17.74;nan;98172.50;7393362;19;20085;-56
2023/12/08 04:09:29;;;;;;;0.32;0.32;;;;;;;18.03;nan;98170.94;7392221;19;20031;-57
2023/12/08 04:11:56;;;;;;;0.20;0.20;;;;;;;18.16;nan;98181.22;7392179;19;20014;-56
2023/12/08 04:14:22;;;;;;;0.30;0.30;;;;;;;18.14;nan;98179.00;7392153;19;20014;-56
2023/12/08 04:16:51;;;;;;;0.30;0.30;;;;;;;18.01;nan;98176.41;7392660;19;20366;-56
2023/12/08 04:19:19;;;;;;;0.20;0.20;;;;;;;18.04;nan;98172.44;7392410;19;20462;-56
2023/12/08 04:21:45;;;;;;;0.10;0.10;;;;;;;18.21;nan;98171.84;7397472;19;20011;-56
2023/12/08 04:24:11;;;;;;;0.17;0.17;;;;;;;18.84;nan;98169.69;7392930;19;20014;-56
2023/12/08 04:26:42;;;;;;;0.10;0.10;;;;;;;19.38;nan;98165.91;7393270;19;20155;-56
2023/12/08 04:29:08;;;;;;;0.10;0.10;;;;;;;19.36;nan;98168.56;7390617;19;20007;-56
2023/12/08 04:31:34;;;;;;;0.10;0.10;;;;;;;18.87;nan;98174.16;7392170;19;20019;-56
2023/12/08 04:34:00;;;;;;;0.13;0.13;;;;;;;17.42;nan;98187.13;7392097;19;20015;-56
2023/12/08 04:36:27;;;;;;;0.28;0.28;;;;;;;17.13;nan;98187.88;7391183;19;20033;-56
2023/12/08 04:38:53;;;;;;;0.10;0.10;;;;;;;18.48;nan;98189.03;7392387;19;20017;-56
2023/12/08 04:41:19;;;;;;;0.30;0.30;;;;;;;18.04;nan;98197.06;7393017;19;20091;-56
2023/12/08 04:43:45;;;;;;;0.20;0.20;;;;;;;19.22;nan;98189.94;7395935;19;20491;-56
2023/12/08 04:46:11;;;;;;;0.10;0.10;;;;;;;19.20;nan;98195.41;7398982;19;20006;-56
2023/12/08 04:48:37;;;;;;;0.30;0.30;;;;;;;18.17;nan;98205.25;7395452;19;20023;-56
2023/12/08 04:51:04;;;;;;;0.10;0.10;;;;;;;21.29;nan;98205.63;7402308;19;20078;-56
2023/12/08 04:53:30;;;;;;;1.95;0.90;;;;;;;20.68;nan;98205.69;7397733;19;20014;-56
2023/12/08 04:55:56;;;;;;;6.72;1.35;;;;;;;19.45;nan;98187.72;7399168;19;20365;-56
2023/12/08 04:58:22;;;;;;;0.10;0.10;;;;;;;19.28;nan;98190.44;7401049;19;20014;-56
2023/12/08 05:00:50;;;;;;;0.20;0.20;;;;;;;18.98;nan;98190.66;7395872;19;20048;-56
2023/12/08 05:03:16;;;;;;;0.20;0.20;;;;;;;18.92;nan;98187.31;7396767;19;20010;-56
2023/12/08 05:05:42;;;;;;;0.40;0.40;;;;;;;17.89;nan;98192.19;7397725;19;20010;-56
2023/12/08 05:08:08;;;;;;;0.40;0.40;;;;;;;17.61;nan;98189.59;7400596;19;20013;-56
2023/12/08 05:10:34;;;;;;;0.30;0.30;;;;;;;21.55;nan;98165.19;7397416;19;20011;-56
2023/12/08 05:13:00;;;;;;;0.10;0.10;;;;;;;17.82;nan;98178.84;7397139;19;20026;-57
2023/12/08 05:15:26;;;;;;;0.65;0.65;;;;;;;17.40;nan;98174.94;7399222;19;20014;-56
2023/12/08 05:17:52;;;;;;;0.10;0.10;;;;;;;17.71;nan;98178.50;7397602;19;20017;-56
2023/12/08 05:20:19;;;;;;;0.20;0.20;;;;;;;17.77;nan;98182.63;7399703;19;20467;-56
2023/12/08 05:22:45;;;;;;;0.20;0.20;;;;;;;17.17;nan;98177.72;7398500;19;20011;-56
2023/12/08 05:25:12;;;;;;;0.10;0.10;;;;;;;16.86;nan;98189.50;7398650;19;20014;-56
2023/12/08 05:27:38;;;;;;;1.95;1.35;;;;;;;16.94;nan;98184.63;7400372;19;20006;-56
2023/12/08 05:30:05;;;;;;;0.28;0.28;;;;;;;16.94;nan;98181.81;7398827;19;20570;-56
2023/12/08 05:32:31;;;;;;;0.10;0.10;;;;;;;16.84;nan;98180.88;7398505;19;20015;-56
2023/12/08 05:34:57;;;;;;;0.20;0.20;;;;;;;17.35;nan;98181.50;7399006;19;20014;-56
2023/12/08 05:37:24;;;;;;;0.10;0.10;;;;;;;16.81;nan;98184.78;7399376;19;20007;-56
2023/12/08 05:39:51;;;;;;;0.32;0.32;;;;;;;17.03;nan;98186.91;7398420;19;20027;-56
2023/12/08 05:42:17;;;;;;;0.15;0.15;;;;;;;17.21;nan;98186.56;7398723;19;20015;-56
2023/12/08 05:44:43;;;;;;;0.10;0.10;;;;;;;17.53;nan;98194.47;7396838;19;20347;-56
2023/12/08 05:47:09;;;;;;;0.38;0.38;;;;;;;17.25;nan;98191.81;7398210;19;20030;-56
2023/12/08 05:49:36;;;;;;;0.20;0.20;;;;;;;17.25;nan;98201.00;7397001;19;20363;-56
2023/12/08 05:52:03;;;;;;;3.80;0.80;;;;;;;17.08;nan;98188.81;7402160;19;20384;-56
2023/12/08 05:54:29;;;;;;;0.20;0.20;;;;;;;17.41;nan;98193.34;7394413;19;20015;-56
2023/12/08 05:56:58;;;;;;;0.20;0.20;;;;;;;16.52;nan;98196.13;7397662;19;20035;-56
2023/12/08 05:59:24;;;;;;;0.35;0.35;;;;;;;16.33;nan;98203.34;7397759;19;20011;-56
2023/12/08 06:01:50;;;;;;;0.73;0.73;;;;;;;14.99;nan;98206.06;7397713;19;20014;-57
2023/12/08 06:04:17;;;;;;;0.10;0.10;;;;;;;16.41;nan;98207.69;7397627;19;20026;-56
2023/12/08 06:06:43;;;;;;;0.40;0.40;;;;;;;15.53;nan;98212.94;7397737;19;20530;-56
2023/12/08 06:09:09;;;;;;;0.20;0.20;;;;;;;14.85;nan;98215.84;7394690;19;20009;-56
2023/12/08 06:11:35;;;;;;;0.10;0.10;;;;;;;14.48;nan;98209.81;7398377;19;20014;-56
2023/12/08 06:14:02;;;;;;;0.40;0.40;;;;;;;14.49;nan;98217.66;7400472;19;20340;-56
2023/12/08 06:16:28;;;;;;;0.40;0.40;;;;;;;14.79;nan;98218.00;7399401;19;20022;-56
2023/12/08 06:18:54;;;;;;;0.20;0.20;;;;;;;14.79;nan;98211.66;7399819;19;20011;-56
2023/12/08 06:21:20;;;;;;;0.10;0.10;;;;;;;14.85;nan;98215.84;7399332;19;20010;-56
2023/12/08 06:23:46;;;;;;;0.20;0.20;;;;;;;15.39;nan;98223.47;7400526;19;20585;-56
2023/12/08 06:26:12;;;;;;;0.32;0.32;;;;;;;15.11;nan;98226.97;7399282;19;20044;-56
2023/12/08 06:28:38;;;;;;;0.20;0.20;;;;;;;16.12;nan;98225.91;7396561;19;20010;-56
2023/12/08 06:31:08;;;;;;;0.10;0.10;;;;;;;16.85;nan;98218.94;7399843;19;20019;-56
2023/12/08 06:33:34;;;;;;;0.85;0.30;;;;;;;16.76;nan;98219.47;7398726;19;20478;-55
2023/12/08 06:36:00;;;;;;;0.10;0.10;;;;;;;15.42;nan;98232.84;7396892;19;20015;-55
2023/12/08 06:38:26;;;;;;;0.10;0.10;;;;;;;15.46;nan;98239.66;7400832;19;20010;-55
2023/12/08 06:40:53;;;;;;;0.17;0.17;;;;;;;15.28;nan;98243.38;7401227;19;20486;-55
2023/12/08 06:43:20;;;;;;;0.10;0.10;;;;;;;17.61;nan;98240.25;7401283;19;20010;-55
2023/12/08 06:45:47;;;;;;;0.20;0.20;;;;;;;19.67;nan;98237.59;7400096;19;20018;-55
2023/12/08 06:48:13;;;;;;;0.13;0.13;;;;;;;19.16;nan;98245.09;7399010;19;20011;-55
2023/12/08 06:50:39;;;;;;;0.10;0.10;;;;;;;18.65;nan;98242.72;7398235;19;20007;-55
2023/12/08 06:53:06;;;;;;;0.10;0.10;;;;;;;18.14;nan;98232.53;7394197;19;20011;-55
2023/12/08 06:55:32;;;;;;;0.20;0.20;;;;;;;19.18;nan;98231.91;7394722;19;20112;-55
2023/12/08 06:57:58;;;;;;;0.30;0.30;;;;;;;17.40;nan;98236.84;7397565;19;20042;-55
2023/12/08 07:00:25;;;;;;;0.20;0.20;;;;;;;18.60;nan;98235.22;7397982;19;20015;-55
2023/12/08 07:02:51;;;;;;;0.10;0.10;;;;;;;18.52;nan;98228.84;7399077;19;20032;-55
2023/12/08 07:05:19;;;;;;;0.10;0.10;;;;;;;20.14;nan;98235.88;7397447;19;20018;-55
2023/12/08 07:07:47;;;;;;;0.10;0.10;;;;;;;21.33;nan;98225.75;7398193;19;20019;-55
2023/12/08 07:10:14;;;;;;;0.10;0.10;;;;;;;21.16;nan;98232.22;7399517;19;20015;-55
2023/12/08 07:12:42;;;;;;;0.20;0.20;;;;;;;20.00;nan;98240.34;7397694;19;20525;-55
2023/12/08 07:15:09;;;;;;;0.17;0.17;;;;;;;19.50;nan;98246.03;7397540;19;20010;-54
2023/12/08 07:17:36;;;;;;;0.30;0.30;;;;;;;21.10;nan;98241.00;7398282;19;20022;-56
2023/12/08 07:20:04;;;;;;;0.10;0.10;;;;;;;17.71;nan;98249.66;7397840;19;20015;-55
2023/12/08 07:22:30;;;;;;;0.20;0.20;;;;;;;17.37;nan;98249.22;7396052;19;20032;-55
2023/12/08 07:24:56;;;;;;;0.10;0.10;;;;;;;25.76;nan;98232.16;7397207;19;20019;-55
2023/12/08 07:27:22;;;;;;;0.10;0.10;;;;;;;27.57;nan;98230.56;7394639;19;20478;-55
2023/12/08 07:29:48;;;;;;;0.10;0.10;;;;;;;28.31;nan;98228.78;7396562;19;20018;-54
2023/12/08 07:32:14;;;;;;;12.43;0.43;;;;;;;28.26;nan;98229.94;7396950;19;20007;-55
2023/12/08 07:34:40;;;;;;;0.10;0.10;;;;;;;27.49;nan;98230.09;7397794;19;20015;-55
2023/12/08 07:37:07;;;;;;;0.10;0.10;;;;;;;27.40;nan;98236.75;7396157;19;20010;-55
2023/12/08 07:39:33;;;;;;;0.20;0.20;;;;;;;27.63;nan;98231.63;7393812;19;20467;-55
2023/12/08 07:41:59;;;;;;;0.10;0.10;;;;;;;27.37;nan;98223.72;7391188;19;20031;-55
2023/12/08 07:44:25;;;;;;;0.68;0.55;;;;;;;28.16;nan;98220.84;7392398;19;20030;-57
2023/12/08 07:46:51;;;;;;;0.30;0.30;;;;;;;28.32;nan;98218.81;7393669;19;20011;-57
2023/12/08 07:49:17;;;;;;;0.10;0.10;;;;;;;28.08;nan;98213.94;7390305;19;20014;-55
2023/12/08 07:51:43;;;;;;;0.10;0.10;;;;;;;30.81;nan;98211.72;7398444;19;20038;-55
2023/12/08 07:54:09;;;;;;;0.10;0.10;;;;;;;28.84;nan;98211.38;7394440;19;20045;-55
2023/12/08 07:56:36;;;;;;;0.15;0.15;;;;;;;27.99;nan;98218.50;7391583;19;20011;-54
2023/12/08 07:59:02;;;;;;;0.10;0.10;;;;;;;28.30;nan;98218.72;7391493;19;20526;-55
2023/12/08 08:01:28;;;;;;;0.10;0.10;;;;;;;28.92;nan;98223.22;7390996;19;20380;-55
2023/12/08 08:03:54;;;;;;;0.10;0.10;;;;;;;28.81;nan;98216.25;7392807;19;20369;-55
2023/12/08 08:06:21;;;;;;;0.20;0.20;;;;;;;28.84;nan;98217.09;7391391;19;20015;-55
2023/12/08 08:08:47;;;;;;;0.10;0.10;;;;;;;28.76;nan;98222.44;7391375;19;20523;-55
2023/12/08 08:11:13;;;;;;;0.20;0.20;;;;;;;28.02;nan;98233.69;7391778;19;20451;-55
2023/12/08 08:13:40;;;;;;;0.10;0.10;;;;;;;27.96;nan;98236.91;7392260;19;20010;-54
2023/12/08 08:16:06;;;;;;;0.10;0.10;;;;;;;28.40;nan;98224.94;7393112;19;20070;-55
2023/12/08 08:18:32;;;;;;;0.13;0.13;;;;;;;28.55;nan;98237.84;7396954;19;20336;-55
2023/12/08 08:20:59;;;;;;;0.10;0.10;;;;;;;28.58;nan;98242.34;7395244;19;20011;-54
2023/12/08 08:23:25;;;;;;;0.10;0.10;;;;;;;28.78;nan;98254.06;7392032;19;20007;-54
2023/12/08 08:25:52;;;;;;;0.10;0.10;;;;;;;28.74;nan;98254.59;7392683;19;20035;-55
2023/12/08 08:28:18;;;;;;;0.40;0.40;;;;;;;28.73;nan;98250.25;7395162;19;20090;-55
2023/12/08 08:30:45;;;;;;;0.65;0.63;;;;;;;28.85;nan;98258.69;7392484;19;20027;-55
2023/12/08 08:33:11;;;;;;;0.10;0.10;;;;;;;28.90;nan;98254.66;7392487;19;20066;-54
2023/12/08 08:35:38;;;;;;;0.40;0.40;;;;;;;29.20;nan;98259.75;7391806;19;20025;-54
2023/12/08 08:38:04;;;;;;;0.20;0.20;;;;;;;29.35;nan;98261.19;7395817;19;20017;-55
2023/12/08 08:40:31;;;;;;;0.10;0.10;;;;;;;29.48;nan;98260.34;7392542;19;20360;-54
2023/12/08 08:42:57;;;;;;;0.15;0.15;;;;;;;29.73;nan;98262.97;7392161;19;20011;-54
2023/12/08 08:45:23;;;;;;;0.20;0.20;;;;;;;30.26;nan;98259.59;7391680;19;20493;-55
2023/12/08 08:47:49;;;;;;;0.10;0.10;;;;;;;29.71;nan;98260.03;7393514;19;20006;-55
2023/12/08 08:50:15;;;;;;;0.20;0.20;;;;;;;29.76;nan;98255.97;7391768;19;20486;-55
2023/12/08 08:52:42;;;;;;;0.57;0.40;;;;;;;29.68;nan;98261.31;7390604;19;20017;-55
2023/12/08 08:55:10;;;;;;;0.10;0.10;;;;;;;28.81;nan;98264.22;7390695;19;20007;-55
2023/12/08 08:57:36;;;;;;;0.17;0.17;;;;;;;28.56;nan;98262.25;7391171;19;20021;-54
2023/12/08 09:00:04;;;;;;;0.10;0.10;;;;;;;29.06;nan;98253.31;7391943;19;20021;-54
2023/12/08 09:02:30;;;;;;;0.10;0.10;;;;;;;28.63;nan;98251.88;7391875;19;20006;-55
2023/12/08 09:04:56;;;;;;;0.17;0.17;;;;;;;28.53;nan;98252.81;7391396;19;20015;-54
2023/12/08 09:07:22;;;;;;;1.38;0.73;;;;;;;28.85;nan;98242.25;7392522;19;20074;-54
2023/12/08 09:09:48;;;;;;;0.10;0.10;;;;;;;28.53;nan;98246.34;7391902;19;20015;-55
2023/12/08 09:12:15;;;;;;;0.28;0.28;;;;;;;28.50;nan;98247.63;7394291;19;20022;-54
2023/12/08 09:14:41;;;;;;;0.20;0.20;;;;;;;28.65;nan;98240.50;7393315;19;20007;-55
2023/12/08 09:17:07;;;;;;;0.30;0.25;;;;;;;28.47;nan;98246.03;7395377;19;20010;-54
2023/12/08 09:19:35;;;;;;;0.15;0.15;;;;;;;28.43;nan;98252.31;7390228;19;20018;-55
2023/12/08 09:22:01;;;;;;;0.10;0.10;;;;;;;29.04;nan;98246.75;7395551;19;20014;-55
2023/12/08 09:24:27;;;;;;;0.90;0.63;;;;;;;29.65;nan;98244.66;7391019;19;20043;-54
2023/12/08 09:26:53;;;;;;;0.10;0.10;;;;;;;29.81;nan;98246.16;7392624;19;20027;-54
2023/12/08 09:29:21;;;;;;;0.10;0.10;;;;;;;29.85;nan;98249.19;7390561;19;20010;-55
2023/12/08 09:31:47;;;;;;;0.10;0.10;;;;;;;30.04;nan;98250.03;7397599;19;20018;-54
2023/12/08 09:34:13;;;;;;;0.10;0.10;;;;;;;29.92;nan;98244.47;7399587;19;20724;-54
2023/12/08 09:36:40;;;;;;;0.20;0.20;;;;;;;30.03;nan;98242.78;7398245;19;20082;-54
2023/12/08 09:39:08;;;;;;;0.10;0.10;;;;;;;29.23;nan;98247.00;7395862;19;21027;-54
2023/12/08 09:41:38;;;;;;;0.10;0.10;;;;;;;28.82;nan;98243.53;7398126;19;20011;-54
2023/12/08 09:44:14;;;;;;;0.10;0.10;;;;;;;28.84;nan;98257.22;7402198;19;20039;-56
2023/12/08 09:46:46;;;;;;;0.10;0.10;;;;;;;29.10;nan;98258.50;7403153;19;20070;-56
2023/12/08 09:49:27;;;;;;;0.10;0.10;;;;;;;29.22;nan;98259.09;7397155;19;20014;-55
2023/12/08 09:51:54;;;;;;;;;;;;;;;29.25;nan;98254.97;7398661;19;20368;-55
2023/12/08 09:54:21;;;;;;;0.30;0.30;;;;;;;29.36;nan;98253.31;7399676;19;19906;-55
2023/12/08 09:56:54;;;;;;;0.20;0.20;;;;;;;29.25;nan;98266.44;7398535;19;20022;-55
2023/12/08 09:59:26;;;;;;;0.10;0.10;;;;;;;29.32;nan;98259.63;7399200;19;20348;-56
2023/12/08 10:01:53;;;;;;;0.15;0.15;;;;;;;29.45;nan;98255.94;7401059;19;20018;-56
2023/12/08 10:04:19;;;;;;;3.20;1.10;;;;;;;29.43;nan;98255.09;7397577;19;20349;-57
2023/12/08 10:06:47;;;;;;;0.43;0.30;;;;;;;29.41;nan;98249.25;7398064;19;20014;-55
2023/12/08 10:09:17;;;;;;;0.10;0.03;;;;;;;29.35;nan;98252.56;7398300;19;20022;-55
2023/12/08 10:11:44;;;;;;;0.10;0.10;;;;;;;28.09;nan;98261.97;7397785;19;20003;-53
2023/12/08 10:14:14;;;;;;;0.28;0.28;;;;;;;28.69;nan;98257.91;7400085;19;20025;-54
2023/12/08 10:16:43;;;;;;;0.10;0.10;;;;;;;29.54;nan;98266.38;7396417;19;20014;-55
2023/12/08 10:19:09;;;;;;;0.28;0.20;;;;;;;29.77;nan;98274.69;7396700;19;20019;-54
2023/12/08 10:21:36;;;;;;;0.10;0.00;;;;;;;29.74;nan;98275.97;7400883;19;20021;-54
2023/12/08 10:24:03;;;;;;;0.10;0.10;;;;;;;29.24;nan;98271.44;7396750;19;20011;-54
2023/12/08 10:26:31;;;;;;;0.10;0.10;;;;;;;29.22;nan;98276.31;7397459;19;20013;-54
2023/12/08 10:28:59;;;;;;;0.05;0.05;;;;;;;27.08;nan;98280.66;7395831;19;20011;-54
2023/12/08 10:31:26;;;;;;;0.10;0.10;;;;;;;27.94;nan;98282.59;7394499;19;20412;-54
2023/12/08 10:33:54;;;;;;;0.10;0.10;;;;;;;28.53;nan;98280.72;7397039;19;20014;-55
2023/12/08 10:36:20;;;;;;;0.10;0.00;;;;;;;29.60;nan;98289.63;7397442;19;20017;-54
2023/12/08 10:38:47;;;;;;;0.13;0.13;;;;;;;31.22;nan;98286.75;7394926;19;20011;-54
2023/12/08 10:41:14;;;;;;;0.35;0.20;;;;;;;31.86;nan;98287.84;7393581;19;20014;-54
2023/12/08 10:43:40;;;;;;;0.10;0.10;;;;;;;30.51;nan;98302.41;7392609;19;20023;-51
2023/12/08 10:46:08;;;;;;;0.10;0.10;;;;;;;30.44;nan;98298.53;7394247;19;20025;-53
2023/12/08 10:48:35;;;;;;;0.10;0.10;;;;;;;30.68;nan;98302.47;7398411;19;20035;-55
2023/12/08 10:51:01;;;;;;;0.10;0.10;;;;;;;29.50;nan;98300.63;7398171;19;20007;-53
2023/12/08 10:53:27;;;;;;;3.03;0.80;;;;;;;30.19;nan;98301.69;7394286;19;20011;-53
2023/12/08 10:56:15;;;;;;;0.10;0.00;;;;;;;30.97;nan;98281.41;7393708;19;20477;-53
2023/12/08 10:58:44;;;;;;;0.10;0.10;;;;;;;31.51;nan;98282.16;7395238;19;20019;-53
2023/12/08 11:01:14;;;;;;;0.10;0.10;;;;;;;30.51;nan;98280.16;7395760;19;20014;-54
2023/12/08 11:03:42;;;;;;;0.10;0.03;;;;;;;30.33;nan;98281.50;7395118;19;20014;-53
2023/12/08 11:06:14;;;;;;;0.10;0.10;;;;;;;29.51;nan;98281.28;7395416;19;20015;-53
2023/12/08 11:11:28;;;;;;;0.10;0.10;;;;;;;30.93;nan;98275.47;7393828;19;20108;-53
2023/12/08 11:17:12;;;;;;;2.75;0.43;;;;;;;30.16;nan;98290.75;7391568;19;20020;-53
2023/12/08 11:19:40;;;;;;;0.10;0.10;;;;;;;30.30;nan;98282.78;7391525;19;20100;-53
2023/12/08 11:22:07;;;;;;;0.10;0.00;;;;;;;30.81;nan;98282.84;7390847;19;20035;-53
2023/12/08 11:24:33;;;;;;;0.65;0.20;;;;;;;31.90;nan;98288.00;7390743;19;20082;-54
2023/12/08 11:27:47;;;;;;;0.10;0.00;;;;;;;32.27;nan;98270.66;7392759;19;20006;-53
2023/12/08 11:30:33;;;;;;;0.50;0.50;;;;;;;32.00;nan;98280.50;7390226;19;20527;-53
2023/12/08 11:33:11;;;;;;;0.10;0.10;;;;;;;32.33;nan;98282.41;7393110;19;20018;-53
2023/12/08 11:41:19;;;;;;;0.10;0.00;;;;;;;32.86;nan;98268.44;7388355;19;20018;-52
2023/12/08 11:43:45;;;;;;;0.10;0.10;;;;;;;33.18;nan;98268.06;7387871;19;20070;-52
2023/12/08 11:46:14;;;;;;;0.40;0.38;;;;;;;33.29;nan;98256.16;7388685;19;20018;-51
2023/12/08 11:48:41;;;;;;;0.10;0.00;;;;;;;33.35;nan;98264.28;7390549;19;20434;-52
2023/12/08 11:51:08;;;;;;;0.10;0.00;;;;;;;33.12;nan;98257.03;7396655;19;20084;-52
2023/12/08 11:53:57;;;;;;;0.10;0.10;;;;;;;32.99;nan;98269.59;7392362;19;20037;-52
2023/12/08 11:56:42;;;;;;;0.10;0.00;;;;;;;32.87;nan;98264.16;7393369;19;20014;-52
2023/12/08 11:59:19;;;;;;;0.15;0.15;;;;;;;32.35;nan;98270.97;7394215;19;20010;-52
2023/12/08 12:01:47;;;;;;;0.10;0.10;;;;;;;32.58;nan;98267.47;7392282;19;20017;-52
2023/12/08 12:04:13;;;;;;;2.03;0.47;;;;;;;19.96;nan;98288.03;7392313;19;20014;-52